Time;durP1;ratioP1;P1;durP2;ratioP2;P2;SDS_P1;SDS_P2;PMS_P1;PMS_P2;Temp;Humidity;BMP_temperature;BMP_pressure;BME280_temperature;BME280_humidity;BME280_pressure;Samples;Min_cycle;Max_cycle;Signal;HPM_P1;HPM_P2
2021/04/01 00:00:48;;;;;;;;;;;23.30;35.00;;;;;;1642842;70;1940;-62
2021/04/01 00:02:51;;;;;;;;;;;23.20;34.90;;;;;;1658759;70;753;-60
2021/04/01 00:04:52;;;;;;;;;;;23.20;34.90;;;;;;1657776;70;752;-62
2021/04/01 00:06:54;;;;;;;;;;;23.30;35.00;;;;;;1663020;70;697;-59
2021/04/01 00:08:56;;;;;;;;;;;23.20;35.00;;;;;;1649920;70;1275;-61
2021/04/01 00:10:58;;;;;;;;;;;23.20;34.80;;;;;;1655930;70;797;-61
2021/04/01 00:13:00;;;;;;;;;;;23.20;34.90;;;;;;1645339;71;771;-60
2021/04/01 00:15:02;;;;;;;;;;;23.30;34.90;;;;;;1652389;71;796;-59
2021/04/01 00:17:05;;;;;;;;;;;23.30;34.90;;;;;;1654044;71;764;-60
2021/04/01 00:19:06;;;;;;;;;;;23.30;34.80;;;;;;1649303;71;1942;-61
2021/04/01 00:21:08;;;;;;;;;;;23.20;34.80;;;;;;1652643;71;734;-60
2021/04/01 00:23:10;;;;;;;;;;;23.20;34.80;;;;;;1652699;71;755;-60
2021/04/01 00:25:13;;;;;;;;;;;23.20;34.70;;;;;;1653475;71;788;-60
2021/04/01 00:27:14;;;;;;;;;;;23.20;34.80;;;;;;1651524;70;806;-60
2021/04/01 00:29:16;;;;;;;;;;;23.20;35.00;;;;;;1639159;71;1258;-60
2021/04/01 00:31:18;;;;;;;;;;;23.30;34.70;;;;;;1650536;71;812;-60
2021/04/01 00:33:20;;;;;;;;;;;23.30;34.90;;;;;;1651607;71;794;-60
2021/04/01 00:35:22;;;;;;;;;;;23.30;34.70;;;;;;1655661;71;800;-60
2021/04/01 00:37:24;;;;;;;;;;;23.30;34.70;;;;;;1654969;71;633;-60
2021/04/01 00:39:26;;;;;;;;;;;23.30;34.70;;;;;;1648597;71;1938;-62
2021/04/01 00:41:27;;;;;;;;;;;23.30;34.60;;;;;;1652521;71;716;-60
2021/04/01 00:43:29;;;;;;;;;;;23.30;34.70;;;;;;1653815;71;752;-60
2021/04/01 00:45:31;;;;;;;;;;;23.30;34.60;;;;;;1646100;71;748;-60
2021/04/01 00:47:35;;;;;;;;;;;23.30;34.60;;;;;;1655078;71;744;-60
2021/04/01 00:49:37;;;;;;;;;;;23.30;34.60;;;;;;1654324;71;1168;-62
2021/04/01 00:51:39;;;;;;;;;;;23.20;34.40;;;;;;1653832;70;890;-60
2021/04/01 00:53:41;;;;;;;;;;;23.30;34.70;;;;;;1649947;70;663;-61
2021/04/01 00:55:42;;;;;;;;;;;23.30;34.60;;;;;;1656586;70;749;-60
2021/04/01 00:57:45;;;;;;;;;;;23.20;34.60;;;;;;1637534;70;744;-60
2021/04/01 00:59:46;;;;;;;;;;;23.20;34.60;;;;;;1654236;70;1938;-62
2021/04/01 01:01:51;;;;;;;;;;;23.20;34.90;;;;;;1653215;70;746;-62
2021/04/01 01:03:52;;;;;;;;;;;23.20;34.70;;;;;;1666973;70;1610;-60
2021/04/01 01:05:54;;;;;;;;;;;23.20;35.00;;;;;;1648231;70;791;-60
2021/04/01 01:07:56;;;;;;;;;;;23.10;34.70;;;;;;1654586;70;766;-61
2021/04/01 01:09:57;;;;;;;;;;;23.20;35.00;;;;;;1653971;70;1225;-61
2021/04/01 01:11:59;;;;;;;;;;;23.20;35.10;;;;;;1660964;70;748;-60
2021/04/01 01:14:02;;;;;;;;;;;23.20;35.30;;;;;;1652087;70;808;-60
2021/04/01 01:16:04;;;;;;;;;;;23.20;35.40;;;;;;1669427;70;739;-60
2021/04/01 01:18:06;;;;;;;;;;;23.20;35.30;;;;;;1650033;70;1140;-60
2021/04/01 01:20:09;;;;;;;;;;;23.20;35.30;;;;;;1659286;70;1930;-59
2021/04/01 01:22:11;;;;;;;;;;;23.20;35.20;;;;;;1658537;70;756;-60
2021/04/01 01:24:13;;;;;;;;;;;23.20;35.30;;;;;;1667020;70;691;-59
2021/04/01 01:26:15;;;;;;;;;;;23.20;35.20;;;;;;1656455;70;815;-62
2021/04/01 01:28:17;;;;;;;;;;;23.20;35.30;;;;;;1650131;70;1184;-61
2021/04/01 01:30:19;;;;;;;;;;;23.10;35.40;;;;;;1659909;70;756;-60
2021/04/01 01:32:22;;;;;;;;;;;23.20;35.30;;;;;;1657372;70;757;-61
2021/04/01 01:34:23;;;;;;;;;;;23.20;35.30;;;;;;1656455;70;677;-60
2021/04/01 01:36:25;;;;;;;;;;;23.10;35.20;;;;;;1654184;70;803;-60
2021/04/01 01:38:27;;;;;;;;;;;23.10;35.10;;;;;;1662880;70;1174;-61
2021/04/01 01:40:29;;;;;;;;;;;23.20;35.10;;;;;;1671666;70;1925;-62
2021/04/01 01:42:31;;;;;;;;;;;23.20;35.10;;;;;;1659233;70;734;-59
2021/04/01 01:44:33;;;;;;;;;;;23.20;35.10;;;;;;1652846;70;770;-60
2021/04/01 01:46:35;;;;;;;;;;;23.20;35.10;;;;;;1648877;70;755;-59
2021/04/01 01:48:37;;;;;;;;;;;23.20;35.20;;;;;;1657476;70;1151;-62
2021/04/01 01:50:39;;;;;;;;;;;23.10;35.10;;;;;;1654158;70;803;-59
2021/04/01 01:52:41;;;;;;;;;;;23.20;35.10;;;;;;1653036;70;739;-61
2021/04/01 01:54:43;;;;;;;;;;;23.20;35.10;;;;;;1661356;70;699;-62
2021/04/01 01:56:45;;;;;;;;;;;23.20;35.00;;;;;;1658706;70;746;-61
2021/04/01 01:58:47;;;;;;;;;;;23.20;35.10;;;;;;1654896;70;1186;-60
2021/04/01 02:00:50;;;;;;;;;;;23.20;35.40;;;;;;1649450;70;1930;-62
2021/04/01 02:02:53;;;;;;;;;;;23.20;35.40;;;;;;1669845;70;967;-59
2021/04/01 02:04:54;;;;;;;;;;;23.20;35.30;;;;;;1660589;70;749;-60
2021/04/01 02:06:56;;;;;;;;;;;23.20;35.20;;;;;;1662740;70;698;-61
2021/04/01 02:08:58;;;;;;;;;;;23.10;35.50;;;;;;1653506;70;1212;-60
2021/04/01 02:11:00;;;;;;;;;;;23.20;35.30;;;;;;1658424;70;857;-60
2021/04/01 02:13:03;;;;;;;;;;;23.20;35.30;;;;;;1633484;70;740;-60
2021/04/01 02:15:05;;;;;;;;;;;23.20;35.10;;;;;;1637864;71;806;-60
2021/04/01 02:17:08;;;;;;;;;;;23.20;35.10;;;;;;1648821;70;740;-61
2021/04/01 02:19:10;;;;;;;;;;;23.20;35.10;;;;;;1645392;70;1167;-62
2021/04/01 02:21:14;;;;;;;;;;;23.20;35.00;;;;;;1650327;70;1935;-61
2021/04/01 02:23:16;;;;;;;;;;;23.20;35.00;;;;;;1655533;70;1563;-61
2021/04/01 02:25:18;;;;;;;;;;;23.20;34.80;;;;;;1661761;70;762;-60
2021/04/01 02:27:20;;;;;;;;;;;23.20;34.90;;;;;;1664201;70;729;-59
2021/04/01 02:29:22;;;;;;;;;;;23.20;35.20;;;;;;1662733;70;1158;-61
2021/04/01 02:31:24;;;;;;;;;;;23.20;35.20;;;;;;1660081;70;665;-59
2021/04/01 02:33:27;;;;;;;;;;;23.20;35.30;;;;;;1662529;70;761;-59
2021/04/01 02:35:28;;;;;;;;;;;23.20;35.20;;;;;;1652898;70;764;-60
2021/04/01 02:37:30;;;;;;;;;;;23.20;35.10;;;;;;1652462;70;774;-60
2021/04/01 02:39:32;;;;;;;;;;;23.20;35.00;;;;;;1668448;70;1267;-60
2021/04/01 02:41:34;;;;;;;;;;;23.20;35.10;;;;;;1658207;70;1936;-59
2021/04/01 02:43:36;;;;;;;;;;;23.20;35.00;;;;;;1659156;70;746;-60
2021/04/01 02:45:38;;;;;;;;;;;23.20;34.90;;;;;;1637205;70;719;-60
2021/04/01 02:47:40;;;;;;;;;;;23.20;35.00;;;;;;1652583;70;747;-59
2021/04/01 02:49:42;;;;;;;;;;;23.20;35.00;;;;;;1651470;70;1177;-59
2021/04/01 02:51:43;;;;;;;;;;;23.20;35.00;;;;;;1648795;70;779;-60
2021/04/01 02:53:45;;;;;;;;;;;23.30;35.10;;;;;;1653998;70;745;-59
2021/04/01 02:55:47;;;;;;;;;;;23.20;35.20;;;;;;1657832;70;777;-59
2021/04/01 02:57:49;;;;;;;;;;;23.20;35.20;;;;;;1669003;70;759;-59
2021/04/01 02:59:51;;;;;;;;;;;23.30;35.40;;;;;;1655932;70;1121;-59
2021/04/01 03:01:53;;;;;;;;;;;23.20;35.50;;;;;;1654924;70;1938;-59
2021/04/01 03:03:56;;;;;;;;;;;23.10;35.60;;;;;;1658878;70;641;-59
2021/04/01 03:06:00;;;;;;;;;;;23.20;35.70;;;;;;1665521;70;767;-60
2021/04/01 03:08:01;;;;;;;;;;;23.20;35.70;;;;;;1651583;70;1216;-60
2021/04/01 03:10:04;;;;;;;;;;;23.20;35.70;;;;;;1642157;71;774;-61
2021/04/01 03:12:06;;;;;;;;;;;23.20;35.50;;;;;;1656076;70;750;-59
2021/04/01 03:14:08;;;;;;;;;;;23.20;35.60;;;;;;1657121;70;738;-60
2021/04/01 03:16:10;;;;;;;;;;;23.10;35.60;;;;;;1654312;70;807;-60
2021/04/01 03:18:12;;;;;;;;;;;23.20;35.60;;;;;;1664935;70;1168;-60
2021/04/01 03:20:13;;;;;;;;;;;23.20;35.60;;;;;;1658497;70;1922;-59
2021/04/01 03:22:15;;;;;;;;;;;23.20;35.60;;;;;;1652455;70;785;-61
2021/04/01 03:24:17;;;;;;;;;;;23.20;35.70;;;;;;1648179;70;789;-61
2021/04/01 03:26:19;;;;;;;;;;;23.20;35.80;;;;;;1667587;70;750;-59
2021/04/01 03:28:21;;;;;;;;;;;23.10;35.70;;;;;;1651438;70;1194;-59
2021/04/01 03:30:23;;;;;;;;;;;23.10;35.70;;;;;;1649730;70;755;-58
2021/04/01 03:32:25;;;;;;;;;;;23.10;35.60;;;;;;1657484;70;813;-59
2021/04/01 03:34:28;;;;;;;;;;;23.10;35.60;;;;;;1660552;70;750;-60
2021/04/01 03:36:31;;;;;;;;;;;23.20;35.50;;;;;;1653926;70;756;-59
2021/04/01 03:38:33;;;;;;;;;;;23.20;35.50;;;;;;1662954;70;1240;-59
2021/04/01 03:40:35;;;;;;;;;;;23.20;35.70;;;;;;1652193;70;1926;-60
2021/04/01 03:42:38;;;;;;;;;;;23.10;35.70;;;;;;1651169;70;779;-62
2021/04/01 03:44:40;;;;;;;;;;;23.10;35.50;;;;;;1665267;70;790;-60
2021/04/01 03:46:42;;;;;;;;;;;23.20;35.50;;;;;;1652727;70;769;-60
2021/04/01 03:48:44;;;;;;;;;;;23.20;35.60;;;;;;1657480;70;1178;-60
2021/04/01 03:50:46;;;;;;;;;;;23.20;35.70;;;;;;1637790;70;214599;-64
2021/04/01 03:52:47;;;;;;;;;;;23.10;35.70;;;;;;1626981;72;747;-66
2021/04/01 03:54:54;;;;;;;;;;;23.10;35.70;;;;;;1613142;72;752;-64
2021/04/01 03:56:53;;;;;;;;;;;23.10;35.70;;;;;;1634219;72;1613;-62
2021/04/01 03:59:01;;;;;;;;;;;23.20;35.70;;;;;;1626685;71;783;-63
2021/04/01 04:03:18;;;;;;;;;;;23.20;35.50;;;;;;1623035;71;663;-63
2021/04/01 04:05:23;;;;;;;;;;;23.10;36.00;;;;;;1619819;71;1590;-64
2021/04/01 04:10:02;;;;;;;;;;;23.20;36.00;;;;;;1632424;71;759;-64
2021/04/01 04:11:36;;;;;;;;;;;23.10;35.60;;;;;;1611256;71;1345;-64
2021/04/01 04:13:55;;;;;;;;;;;23.10;35.70;;;;;;1628390;71;1633;-63
2021/04/01 04:15:51;;;;;;;;;;;23.10;35.60;;;;;;1627016;71;1575;-64
2021/04/01 04:17:53;;;;;;;;;;;23.10;35.90;;;;;;1632934;71;798;-64
2021/04/01 04:19:55;;;;;;;;;;;23.10;36.00;;;;;;1623308;71;1145;-64
2021/04/01 04:21:58;;;;;;;;;;;23.00;36.00;;;;;;1629003;72;1924;-65
2021/04/01 04:24:02;;;;;;;;;;;23.10;35.70;;;;;;1630376;71;681;-65
2021/04/01 04:26:04;;;;;;;;;;;23.00;35.50;;;;;;1621999;71;731;-65
2021/04/01 04:30:12;;;;;;;;;;;23.10;35.60;;;;;;1622527;71;1145;-64
2021/04/01 04:32:14;;;;;;;;;;;23.00;35.40;;;;;;1636547;71;788;-64
2021/04/01 04:34:16;;;;;;;;;;;23.10;35.60;;;;;;1622467;71;804;-63
2021/04/01 04:36:18;;;;;;;;;;;23.10;35.50;;;;;;1634440;71;807;-64
2021/04/01 04:38:20;;;;;;;;;;;23.00;35.30;;;;;;1622699;71;756;-64
2021/04/01 04:40:22;;;;;;;;;;;23.10;35.30;;;;;;1634238;71;1167;-64
2021/04/01 04:42:24;;;;;;;;;;;23.00;35.50;;;;;;1629526;71;1945;-66
2021/04/01 04:44:26;;;;;;;;;;;23.10;35.90;;;;;;1624916;71;1269;-64
2021/04/01 04:46:28;;;;;;;;;;;23.00;35.40;;;;;;1630832;71;767;-64
2021/04/01 04:48:30;;;;;;;;;;;23.10;35.60;;;;;;1627554;71;743;-63
2021/04/01 04:50:32;;;;;;;;;;;23.10;35.50;;;;;;1621777;71;1159;-64
2021/04/01 04:52:35;;;;;;;;;;;23.00;35.20;;;;;;1623530;71;672;-64
2021/04/01 04:54:37;;;;;;;;;;;23.00;35.20;;;;;;1626688;71;733;-64
2021/04/01 04:56:39;;;;;;;;;;;23.00;35.60;;;;;;1625666;71;724;-63
2021/04/01 04:58:48;;;;;;;;;;;23.00;35.70;;;;;;1624937;71;738;-64
2021/04/01 05:01:11;;;;;;;;;;;23.10;35.70;;;;;;1615742;71;1547;-64
2021/04/01 05:05:07;;;;;;;;;;;23.10;35.90;;;;;;1624939;71;690;-64
2021/04/01 05:07:09;;;;;;;;;;;23.10;35.90;;;;;;1628645;71;820;-63
2021/04/01 05:09:11;;;;;;;;;;;23.10;36.00;;;;;;1626948;71;797;-63
2021/04/01 05:11:13;;;;;;;;;;;23.10;36.10;;;;;;1629092;71;1156;-64
2021/04/01 05:13:15;;;;;;;;;;;23.00;36.00;;;;;;1635596;71;798;-63
2021/04/01 05:15:17;;;;;;;;;;;23.10;36.10;;;;;;1625927;71;768;-64
2021/04/01 05:17:20;;;;;;;;;;;23.10;36.10;;;;;;1632853;71;750;-67
2021/04/01 05:19:23;;;;;;;;;;;23.10;36.10;;;;;;1634437;71;795;-66
2021/04/01 05:21:33;;;;;;;;;;;23.00;36.70;;;;;;1627526;71;1932;-64
2021/04/01 05:25:35;;;;;;;;;;;23.00;36.10;;;;;;1619694;71;636;-65
2021/04/01 05:30:04;;;;;;;;;;;23.00;36.10;;;;;;1618745;71;1201;-64
2021/04/01 05:32:06;;;;;;;;;;;23.00;36.10;;;;;;1628193;71;647;-64
2021/04/01 05:34:09;;;;;;;;;;;23.10;36.50;;;;;;1631688;71;765;-69
2021/04/01 05:36:13;;;;;;;;;;;23.10;37.40;;;;;;1631822;71;748;-69
2021/04/01 05:38:14;;;;;;;;;;;23.10;36.30;;;;;;1637822;71;1644;-68
2021/04/01 05:40:17;;;;;;;;;;;23.20;36.20;;;;;;1628749;71;1220;-66
2021/04/01 05:42:22;;;;;;;;;;;23.40;35.90;;;;;;1623778;71;1939;-67
2021/04/01 05:44:32;;;;;;;;;;;23.90;34.00;;;;;;1632740;71;1714;-70
2021/04/01 05:46:41;;;;;;;;;;;24.10;32.60;;;;;;1628304;71;1607;-67
2021/04/01 05:51:14;;;;;;;;;;;24.30;31.90;;;;;;1632932;71;1218;-68
2021/04/01 05:53:49;;;;;;;;;;;24.10;32.00;;;;;;1627966;71;1431;-70
2021/04/01 06:04:19;;;;;;;;;;;23.70;32.30;;;;;;1601852;73;1125;-71
2021/04/01 06:06:17;;;;;;;;;;;23.80;32.30;;;;;;1620936;71;1754;-67
2021/04/01 06:08:21;;;;;;;;;;;23.80;32.10;;;;;;1623053;71;755;-69
2021/04/01 06:10:23;;;;;;;;;;;23.90;31.60;;;;;;1623214;70;1193;-68
2021/04/01 06:12:31;;;;;;;;;;;23.80;31.30;;;;;;1624999;71;765;-68
2021/04/01 06:14:39;;;;;;;;;;;23.70;31.00;;;;;;1629021;71;761;-69
2021/04/01 06:16:42;;;;;;;;;;;23.70;31.00;;;;;;1630889;71;1196;-69
2021/04/01 06:18:44;;;;;;;;;;;23.60;31.00;;;;;;1629300;71;1033;-70
2021/04/01 06:20:47;;;;;;;;;;;23.60;31.00;;;;;;1632444;71;1164;-71
2021/04/01 06:22:49;;;;;;;;;;;23.50;31.10;;;;;;1631667;71;1932;-70
2021/04/01 06:24:51;;;;;;;;;;;23.50;31.40;;;;;;1628361;71;793;-70
2021/04/01 06:27:03;;;;;;;;;;;23.50;32.10;;;;;;1624829;71;737;-70
2021/04/01 06:29:04;;;;;;;;;;;23.50;32.70;;;;;;1627064;71;1181;-69
2021/04/01 06:31:07;;;;;;;;;;;23.50;32.80;;;;;;1628655;71;1148;-69
2021/04/01 06:33:14;;;;;;;;;;;23.40;32.40;;;;;;1629620;71;743;-66
2021/04/01 06:36:16;;;;;;;;;;;23.40;32.60;;;;;;1628184;71;671;-68
2021/04/01 06:39:41;;;;;;;;;;;23.30;32.40;;;;;;1629366;71;664;-68
2021/04/01 06:41:43;;;;;;;;;;;23.30;32.50;;;;;;1623391;71;1944;-70
2021/04/01 06:43:58;;;;;;;;;;;23.30;32.40;;;;;;1639143;71;806;-70
2021/04/01 06:46:02;;;;;;;;;;;23.30;32.40;;;;;;1629519;71;778;-65
2021/04/01 06:48:04;;;;;;;;;;;23.30;32.40;;;;;;1639434;71;1303;-68
2021/04/01 06:50:17;;;;;;;;;;;23.30;32.30;;;;;;1624384;71;1173;-69
2021/04/01 06:52:18;;;;;;;;;;;23.20;32.20;;;;;;1628264;71;1576;-64
2021/04/01 06:54:32;;;;;;;;;;;23.20;32.10;;;;;;1628615;71;1578;-69
2021/04/01 06:56:38;;;;;;;;;;;23.20;32.00;;;;;;1630984;71;1507;-68
2021/04/01 06:58:44;;;;;;;;;;;23.10;29.80;;;;;;1622018;71;1545;-73
2021/04/01 07:02:54;;;;;;;;;;;23.20;31.20;;;;;;1547543;75;1967;-69
2021/04/01 07:05:01;;;;;;;;;;;23.20;31.30;;;;;;1611546;71;819;-69
2021/04/01 07:07:08;;;;;;;;;;;23.20;31.20;;;;;;1630133;71;1501;-69
2021/04/01 07:11:45;;;;;;;;;;;23.40;31.10;;;;;;1625331;71;1210;-67
2021/04/01 07:13:48;;;;;;;;;;;23.60;31.00;;;;;;1629201;71;811;-69
2021/04/01 07:15:54;;;;;;;;;;;23.60;30.80;;;;;;1634010;71;801;-69
2021/04/01 07:17:57;;;;;;;;;;;23.60;30.70;;;;;;1628622;71;1099;-69
2021/04/01 07:20:26;;;;;;;;;;;23.60;30.60;;;;;;1629165;71;1570;-70
2021/04/01 07:44:44;;;;;;;;;;;23.60;30.40;;;;;;1630843;71;663;-69
2021/04/01 07:47:08;;;;;;;;;;;23.90;29.70;;;;;;1633016;71;788;-68
2021/04/01 07:49:12;;;;;;;;;;;23.90;29.60;;;;;;1633941;71;745;-69
2021/04/01 07:51:54;;;;;;;;;;;24.00;29.50;;;;;;1634686;71;1657;-69
2021/04/01 07:53:45;;;;;;;;;;;23.90;29.40;;;;;;1624170;71;1516;-69
2021/04/01 07:55:59;;;;;;;;;;;24.00;29.30;;;;;;1630340;71;1785;-69
2021/04/01 08:00:21;;;;;;;;;;;24.20;29.20;;;;;;1592427;74;1193;-69
2021/04/01 08:02:30;;;;;;;;;;;24.20;29.30;;;;;;1606675;71;1943;-69
2021/04/01 08:04:28;;;;;;;;;;;24.20;29.20;;;;;;1632842;71;1586;-68
2021/04/01 08:06:29;;;;;;;;;;;24.30;29.30;;;;;;1636826;71;808;-69
2021/04/01 08:08:31;;;;;;;;;;;24.20;29.10;;;;;;1627871;71;748;-69
2021/04/01 08:10:38;;;;;;;;;;;24.30;29.20;;;;;;1628205;71;1208;-69
2021/04/01 08:12:42;;;;;;;;;;;24.30;29.10;;;;;;1629681;71;1573;-69
2021/04/01 08:14:46;;;;;;;;;;;24.40;29.00;;;;;;1626487;71;752;-70
2021/04/01 08:16:55;;;;;;;;;;;24.40;28.90;;;;;;1641269;71;740;-69
2021/04/01 08:18:55;;;;;;;;;;;24.40;28.90;;;;;;1634566;71;1493;-68
2021/04/01 08:21:01;;;;;;;;;;;24.40;28.80;;;;;;1637312;71;1150;-69
2021/04/01 08:23:09;;;;;;;;;;;24.40;28.80;;;;;;1633984;71;2149;-67
2021/04/01 08:25:08;;;;;;;;;;;24.40;28.60;;;;;;1633631;71;1552;-69
2021/04/01 08:27:25;;;;;;;;;;;24.40;28.70;;;;;;1630068;71;744;-69
2021/04/01 08:36:01;;;;;;;;;;;24.40;28.50;;;;;;1629930;71;825;-69
2021/04/01 08:38:14;;;;;;;;;;;24.50;28.60;;;;;;1628525;71;793;-69
2021/04/01 08:40:16;;;;;;;;;;;24.50;28.60;;;;;;1632439;71;1160;-66
2021/04/01 08:42:19;;;;;;;;;;;24.50;28.70;;;;;;1634619;71;1940;-68
2021/04/01 08:44:23;;;;;;;;;;;24.40;28.50;;;;;;1623155;71;1029;-68
2021/04/01 08:46:32;;;;;;;;;;;24.50;28.70;;;;;;1622934;71;851;-68
2021/04/01 08:48:35;;;;;;;;;;;24.50;28.70;;;;;;1622815;71;754;-69
2021/04/01 08:50:42;;;;;;;;;;;24.50;28.70;;;;;;1625197;71;1641;-68
2021/04/01 08:53:02;;;;;;;;;;;24.50;28.70;;;;;;1635051;71;997;-67
2021/04/01 08:55:14;;;;;;;;;;;24.50;28.60;;;;;;1634982;71;688;-67
2021/04/01 08:57:20;;;;;;;;;;;24.50;28.60;;;;;;1633528;71;749;-64
2021/04/01 08:59:27;;;;;;;;;;;24.50;28.70;;;;;;1634079;71;1517;-67
2021/04/01 09:01:29;;;;;;;;;;;24.50;28.80;;;;;;1638859;71;1213;-67
2021/04/01 09:03:34;;;;;;;;;;;24.60;28.70;;;;;;1640335;71;1972;-67
2021/04/01 09:05:36;;;;;;;;;;;24.50;28.80;;;;;;1633179;71;727;-68
2021/04/01 09:07:45;;;;;;;;;;;24.50;28.70;;;;;;1636153;71;804;-68
2021/04/01 09:09:48;;;;;;;;;;;24.50;28.80;;;;;;1637779;71;1225;-67
2021/04/01 09:12:05;;;;;;;;;;;24.50;28.90;;;;;;1631304;71;732;-67
2021/04/01 09:14:00;;;;;;;;;;;24.60;28.80;;;;;;1621285;71;1661;-67
2021/04/01 09:16:13;;;;;;;;;;;24.60;28.80;;;;;;1631669;71;780;-68
2021/04/01 09:18:20;;;;;;;;;;;24.50;28.90;;;;;;1632226;71;1586;-67
2021/04/01 09:20:23;;;;;;;;;;;24.60;28.90;;;;;;1626166;71;1162;-68
2021/04/01 09:22:30;;;;;;;;;;;24.50;29.00;;;;;;1632913;71;1935;-69
2021/04/01 09:24:35;;;;;;;;;;;24.60;29.00;;;;;;1627220;71;653;-67
2021/04/01 09:26:37;;;;;;;;;;;24.50;29.00;;;;;;1633360;71;777;-67
2021/04/01 09:28:41;;;;;;;;;;;24.50;29.10;;;;;;1631535;71;762;-69
2021/04/01 09:30:43;;;;;;;;;;;24.60;29.00;;;;;;1625667;71;1147;-68
2021/04/01 09:32:47;;;;;;;;;;;24.50;29.00;;;;;;1621914;71;848;-68
2021/04/01 09:34:49;;;;;;;;;;;24.60;29.10;;;;;;1631679;71;600;-67
2021/04/01 09:36:51;;;;;;;;;;;24.50;29.10;;;;;;1642535;71;752;-67
2021/04/01 09:38:53;;;;;;;;;;;24.50;29.10;;;;;;1632568;71;743;-68
2021/04/01 09:40:55;;;;;;;;;;;24.50;29.00;;;;;;1637265;71;1167;-67
2021/04/01 09:42:58;;;;;;;;;;;24.50;29.10;;;;;;1626108;71;1929;-68
2021/04/01 09:45:01;;;;;;;;;;;24.50;29.10;;;;;;1628270;71;1742;-67
2021/04/01 09:47:05;;;;;;;;;;;24.50;29.00;;;;;;1628200;71;739;-66
2021/04/01 09:49:08;;;;;;;;;;;24.50;29.00;;;;;;1630183;71;1629;-69
2021/04/01 09:51:17;;;;;;;;;;;24.50;29.00;;;;;;1627002;71;2133;-65
2021/04/01 09:53:20;;;;;;;;;;;24.50;29.10;;;;;;1622979;72;1018;-64
2021/04/01 09:55:22;;;;;;;;;;;24.40;29.20;;;;;;1623794;72;748;-65
2021/04/01 09:57:28;;;;;;;;;;;24.40;29.20;;;;;;1626293;72;763;-64
2021/04/01 09:59:54;;;;;;;;;;;24.50;29.30;;;;;;1601353;72;1014;-64
2021/04/01 10:02:02;;;;;;;;;;;24.50;29.30;;;;;;1597095;73;1734;-64
2021/04/01 10:04:06;;;;;;;;;;;24.40;29.20;;;;;;1595981;73;1942;-64
2021/04/01 10:06:08;;;;;;;;;;;24.50;29.30;;;;;;1596521;73;727;-63
2021/04/01 10:08:10;;;;;;;;;;;24.50;29.20;;;;;;1597613;73;755;-64
2021/04/01 10:10:12;;;;;;;;;;;24.40;29.20;;;;;;1599153;73;1223;-64
2021/04/01 10:12:18;;;;;;;;;;;24.40;29.30;;;;;;1600164;73;782;-64
2021/04/01 10:14:18;;;;;;;;;;;24.30;29.30;;;;;;1599372;73;1671;-64
2021/04/01 10:16:23;;;;;;;;;;;24.40;29.40;;;;;;1598190;73;834;-64
2021/04/01 10:18:28;;;;;;;;;;;24.40;29.40;;;;;;1597348;73;771;-66
2021/04/01 10:20:32;;;;;;;;;;;24.40;29.40;;;;;;1597239;73;1166;-63
2021/04/01 10:22:36;;;;;;;;;;;24.40;29.40;;;;;;1596183;73;1945;-64
2021/04/01 10:24:38;;;;;;;;;;;24.30;29.40;;;;;;1598310;73;752;-64
2021/04/01 10:26:43;;;;;;;;;;;24.40;29.40;;;;;;1597045;73;802;-64
2021/04/01 10:28:46;;;;;;;;;;;24.30;29.40;;;;;;1596688;73;1099;-64
2021/04/01 10:30:48;;;;;;;;;;;24.40;29.40;;;;;;1587673;73;1185;-66
2021/04/01 10:32:54;;;;;;;;;;;24.40;29.40;;;;;;1596450;73;744;-66
2021/04/01 10:34:59;;;;;;;;;;;24.30;29.40;;;;;;1596887;73;741;-64
2021/04/01 10:37:03;;;;;;;;;;;24.30;29.40;;;;;;1593893;73;800;-64
2021/04/01 10:39:12;;;;;;;;;;;24.40;29.40;;;;;;1600353;73;1826;-65
2021/04/01 10:41:14;;;;;;;;;;;24.30;29.40;;;;;;1595376;73;1624;-65
2021/04/01 10:43:17;;;;;;;;;;;24.30;29.40;;;;;;1602073;73;1936;-61
2021/04/01 10:45:22;;;;;;;;;;;24.30;29.50;;;;;;1597446;73;732;-64
2021/04/01 10:47:24;;;;;;;;;;;24.30;29.50;;;;;;1595584;73;824;-66
2021/04/01 10:49:27;;;;;;;;;;;24.10;28.20;;;;;;1596788;73;747;-66
2021/04/01 10:51:29;;;;;;;;;;;24.00;27.80;;;;;;1595493;73;1177;-64
2021/04/01 10:53:31;;;;;;;;;;;24.00;27.80;;;;;;1595780;73;799;-64
2021/04/01 10:55:33;;;;;;;;;;;23.90;28.60;;;;;;1600397;73;731;-65
2021/04/01 10:57:35;;;;;;;;;;;24.00;28.90;;;;;;1601001;73;790;-65
2021/04/01 10:59:37;;;;;;;;;;;24.00;29.00;;;;;;1594172;73;800;-64
2021/04/01 11:01:40;;;;;;;;;;;24.00;29.00;;;;;;1598109;73;1185;-65
2021/04/01 11:03:44;;;;;;;;;;;24.00;29.00;;;;;;1603349;73;1944;-67
2021/04/01 11:05:46;;;;;;;;;;;24.00;29.10;;;;;;1590488;73;766;-64
2021/04/01 11:07:48;;;;;;;;;;;24.00;29.20;;;;;;1597666;73;773;-65
2021/04/01 11:09:51;;;;;;;;;;;24.00;29.10;;;;;;1597705;73;835;-62
2021/04/01 11:13:56;;;;;;;;;;;24.00;29.20;;;;;;1596651;73;786;-63
2021/04/01 11:15:58;;;;;;;;;;;24.00;29.30;;;;;;1611139;73;748;-63
2021/04/01 11:18:02;;;;;;;;;;;24.00;29.20;;;;;;1592301;73;771;-63
2021/04/01 11:20:04;;;;;;;;;;;24.00;29.30;;;;;;1588808;73;747;-63
2021/04/01 11:22:06;;;;;;;;;;;24.00;29.30;;;;;;1595901;73;1222;-62
2021/04/01 11:24:08;;;;;;;;;;;24.00;29.40;;;;;;1591617;74;1936;-63
2021/04/01 11:26:10;;;;;;;;;;;24.00;29.40;;;;;;1594687;73;1191;-63
2021/04/01 11:28:12;;;;;;;;;;;23.90;29.40;;;;;;1578786;73;793;-63
2021/04/01 11:30:14;;;;;;;;;;;24.00;29.40;;;;;;1590622;73;1193;-66
2021/04/01 11:32:17;;;;;;;;;;;23.90;29.50;;;;;;1582208;73;787;-62
2021/04/01 11:34:18;;;;;;;;;;;23.90;29.50;;;;;;1586893;73;776;-64
2021/04/01 11:36:22;;;;;;;;;;;23.90;29.50;;;;;;1600056;73;783;-63
2021/04/01 11:38:24;;;;;;;;;;;23.90;29.50;;;;;;1596455;73;671;-65
2021/04/01 11:40:26;;;;;;;;;;;23.90;29.80;;;;;;1600726;73;1182;-63
2021/04/01 11:42:29;;;;;;;;;;;23.90;30.10;;;;;;1597865;73;738;-63
2021/04/01 11:44:30;;;;;;;;;;;23.80;30.50;;;;;;1588351;73;1925;-63
2021/04/01 11:46:32;;;;;;;;;;;23.90;30.80;;;;;;1595522;73;802;-64
2021/04/01 11:48:34;;;;;;;;;;;23.90;30.90;;;;;;1601243;73;779;-64
2021/04/01 11:50:36;;;;;;;;;;;23.90;30.90;;;;;;1591576;73;1176;-62
2021/04/01 11:52:38;;;;;;;;;;;24.00;31.00;;;;;;1595940;73;802;-62
2021/04/01 11:54:40;;;;;;;;;;;23.90;31.00;;;;;;1593180;73;790;-62
2021/04/01 11:56:42;;;;;;;;;;;23.90;30.80;;;;;;1604810;73;795;-62
2021/04/01 11:58:44;;;;;;;;;;;23.90;30.90;;;;;;1598769;73;798;-62
2021/04/01 12:00:47;;;;;;;;;;;23.90;30.80;;;;;;1591497;73;1192;-62
2021/04/01 12:02:56;;;;;;;;;;;23.90;30.70;;;;;;1599178;73;741;-62
2021/04/01 12:04:59;;;;;;;;;;;23.90;30.70;;;;;;1597147;73;1941;-62
2021/04/01 12:07:00;;;;;;;;;;;23.90;30.70;;;;;;1593521;73;1614;-62
2021/04/01 12:09:01;;;;;;;;;;;23.90;30.70;;;;;;1598587;73;812;-62
2021/04/01 12:11:03;;;;;;;;;;;23.90;30.70;;;;;;1594054;73;1206;-62
2021/04/01 12:13:06;;;;;;;;;;;23.80;30.50;;;;;;1595106;73;785;-63
2021/04/01 12:15:08;;;;;;;;;;;23.90;30.60;;;;;;1599141;73;739;-63
2021/04/01 12:17:10;;;;;;;;;;;23.90;30.60;;;;;;1601033;73;764;-62
2021/04/01 12:19:12;;;;;;;;;;;23.90;30.60;;;;;;1600484;73;807;-63
2021/04/01 12:21:14;;;;;;;;;;;23.80;30.60;;;;;;1603005;73;1157;-63
2021/04/01 12:23:24;;;;;;;;;;;23.90;30.80;;;;;;1599658;73;1937;-61
2021/04/01 12:25:23;;;;;;;;;;;23.70;30.70;;;;;;1596381;73;1517;-64
2021/04/01 12:27:30;;;;;;;;;;;23.80;30.50;;;;;;1590279;73;811;-62
2021/04/01 12:29:32;;;;;;;;;;;23.80;30.70;;;;;;1595413;73;1388;-66
2021/04/01 12:31:38;;;;;;;;;;;23.70;30.80;;;;;;1600242;73;1172;-63
2021/04/01 12:33:50;;;;;;;;;;;23.80;30.90;;;;;;1592600;73;645;-64
2021/04/01 12:36:01;;;;;;;;;;;23.70;30.90;;;;;;1597256;73;787;-62
2021/04/01 12:38:05;;;;;;;;;;;23.70;30.90;;;;;;1597934;73;816;-63
2021/04/01 12:40:11;;;;;;;;;;;23.80;31.00;;;;;;1599295;73;1165;-62
2021/04/01 12:42:12;;;;;;;;;;;23.80;30.90;;;;;;1594124;73;697;-63
2021/04/01 12:44:14;;;;;;;;;;;23.80;30.80;;;;;;1596757;73;1942;-65
2021/04/01 12:46:16;;;;;;;;;;;23.80;30.80;;;;;;1597030;73;792;-63
2021/04/01 12:48:18;;;;;;;;;;;23.80;30.80;;;;;;1602190;73;772;-65
2021/04/01 12:50:20;;;;;;;;;;;23.80;30.70;;;;;;1597785;73;1135;-66
2021/04/01 12:52:22;;;;;;;;;;;23.70;30.80;;;;;;1604374;73;747;-63
2021/04/01 12:54:37;;;;;;;;;;;23.70;30.70;;;;;;1594349;73;644;-63
2021/04/01 12:56:43;;;;;;;;;;;23.70;30.70;;;;;;1585464;73;1486;-64
2021/04/01 12:58:46;;;;;;;;;;;23.80;30.70;;;;;;1601179;73;1093;-67
2021/04/01 13:00:51;;;;;;;;;;;23.80;30.60;;;;;;1597341;73;1649;-63
2021/04/01 13:02:51;;;;;;;;;;;23.80;30.60;;;;;;1603636;73;1561;-62
2021/04/01 13:05:01;;;;;;;;;;;23.80;30.60;;;;;;1602803;73;1938;-62
2021/04/01 13:11:37;;;;;;;;;;;23.60;30.50;;;;;;1596481;73;1221;-62
2021/04/01 13:13:40;;;;;;;;;;;23.60;30.40;;;;;;1598356;73;759;-62
2021/04/01 13:15:42;;;;;;;;;;;23.60;30.50;;;;;;1596051;73;738;-64
2021/04/01 13:17:44;;;;;;;;;;;23.50;30.60;;;;;;1594350;73;773;-62
2021/04/01 13:19:46;;;;;;;;;;;23.60;30.60;;;;;;1600899;73;766;-65
2021/04/01 13:24:00;;;;;;;;;;;23.60;30.50;;;;;;1601316;73;1934;-62
2021/04/01 13:25:55;;;;;;;;;;;23.60;30.50;;;;;;1598063;73;1516;-62
2021/04/01 13:27:58;;;;;;;;;;;23.60;30.60;;;;;;1597055;73;748;-63